createdAt,value
2022-12-17T00:00:12.144Z,0.00
2022-12-17T00:01:43.993Z,0.00
2022-12-17T00:02:44.095Z,0.00
2022-12-17T00:03:44.132Z,0.00
2022-12-17T00:04:44.015Z,0.00
2022-12-17T00:05:12.084Z,0.00
2022-12-17T00:06:12.069Z,0.00
2022-12-17T00:07:12.028Z,0.00
2022-12-17T00:08:13.023Z,0.00
2022-12-17T00:09:12.037Z,0.00
2022-12-17T00:10:12.046Z,0.00
2022-12-17T00:11:12.031Z,0.00
2022-12-17T00:12:11.999Z,0.00
2022-12-17T00:13:12.012Z,0.00
2022-12-17T00:14:12.032Z,0.00
2022-12-17T00:15:12.032Z,0.00
2022-12-17T00:16:12.025Z,0.00
2022-12-17T00:17:11.975Z,0.00
2022-12-17T00:18:11.962Z,0.00
2022-12-17T00:19:11.973Z,0.00
2022-12-17T00:20:11.940Z,0.00
2022-12-17T00:21:11.935Z,0.00
2022-12-17T00:22:11.983Z,0.00
2022-12-17T00:23:11.989Z,0.00
2022-12-17T00:24:11.913Z,0.00
2022-12-17T00:25:11.973Z,0.00
2022-12-17T00:26:11.938Z,0.00
2022-12-17T00:27:11.918Z,0.00
2022-12-17T00:28:11.947Z,0.00
2022-12-17T00:29:11.874Z,0.00
2022-12-17T00:30:11.862Z,0.00
2022-12-17T00:31:12.004Z,0.00
2022-12-17T00:32:11.860Z,0.00
2022-12-17T00:33:11.846Z,0.00
2022-12-17T00:34:11.875Z,0.00
2022-12-17T00:35:43.751Z,0.00
2022-12-17T00:36:11.870Z,0.00
2022-12-17T00:37:11.826Z,0.00
2022-12-17T00:38:11.828Z,0.00
2022-12-17T00:39:11.837Z,0.00
2022-12-17T00:40:11.800Z,0.00
2022-12-17T00:41:11.803Z,0.00
2022-12-17T00:42:11.788Z,0.00
2022-12-17T00:43:11.785Z,0.00
2022-12-17T00:44:11.824Z,0.00
2022-12-17T00:45:11.762Z,0.00
2022-12-17T00:46:11.767Z,0.00
2022-12-17T00:47:12.496Z,0.00
2022-12-17T00:48:12.744Z,0.00
2022-12-17T00:49:11.748Z,0.00
2022-12-17T00:50:11.731Z,0.00
2022-12-17T00:51:11.706Z,0.00
2022-12-17T00:52:11.716Z,0.00
2022-12-17T00:53:12.328Z,0.00
2022-12-17T00:54:11.713Z,0.00
2022-12-17T00:55:11.693Z,0.00
2022-12-17T00:56:11.675Z,0.00
2022-12-17T00:57:11.685Z,0.00
2022-12-17T00:58:11.657Z,0.00
2022-12-17T00:59:11.668Z,0.00
2022-12-17T01:00:11.671Z,0.00
2022-12-17T01:01:11.815Z,0.00
2022-12-17T01:02:11.765Z,0.00
2022-12-17T01:03:11.674Z,0.00
2022-12-17T01:04:11.625Z,0.00
2022-12-17T01:05:11.618Z,0.00
2022-12-17T01:06:11.617Z,0.00
2022-12-17T01:07:11.624Z,0.00
2022-12-17T01:08:12.374Z,0.00
2022-12-17T01:09:11.583Z,0.00
2022-12-17T01:10:11.560Z,0.00
2022-12-17T01:11:11.565Z,0.00
2022-12-17T01:12:11.565Z,0.00
2022-12-17T01:13:11.585Z,0.00
2022-12-17T01:14:11.549Z,0.00
2022-12-17T01:15:11.542Z,0.00
2022-12-17T01:16:11.569Z,0.00
2022-12-17T01:17:11.531Z,0.00
2022-12-17T01:18:12.322Z,0.00
2022-12-17T01:19:11.498Z,0.00
2022-12-17T01:20:11.482Z,0.00
2022-12-17T01:21:11.496Z,0.00
2022-12-17T01:22:11.488Z,0.00
2022-12-17T01:23:11.507Z,0.00
2022-12-17T01:24:11.484Z,0.00
2022-12-17T01:25:11.486Z,0.00
2022-12-17T01:26:11.460Z,0.00
2022-12-17T01:27:11.458Z,0.00
2022-12-17T01:28:12.254Z,0.00
2022-12-17T01:29:11.458Z,0.00
2022-12-17T01:30:11.446Z,0.00
2022-12-17T01:31:11.466Z,0.00
2022-12-17T01:32:11.446Z,0.00
2022-12-17T01:33:11.403Z,0.00
2022-12-17T01:34:11.396Z,0.00
2022-12-17T01:35:11.404Z,0.00
2022-12-17T01:36:11.371Z,0.00
2022-12-17T01:37:11.360Z,0.00
2022-12-17T01:38:11.622Z,0.00
2022-12-17T01:39:11.408Z,0.00
2022-12-17T01:40:11.433Z,0.00
2022-12-17T01:41:11.347Z,0.00
2022-12-17T01:42:11.330Z,0.00
2022-12-17T01:43:11.325Z,0.00
2022-12-17T01:44:11.327Z,0.00
2022-12-17T01:45:11.384Z,0.00
2022-12-17T01:46:11.362Z,0.00
2022-12-17T01:47:11.980Z,0.00
2022-12-17T01:48:12.249Z,0.00
2022-12-17T01:49:12.285Z,0.00
2022-12-17T01:50:11.297Z,0.00
2022-12-17T01:51:12.276Z,0.00
2022-12-17T01:52:11.256Z,0.00
2022-12-17T01:53:11.267Z,0.00
2022-12-17T01:54:11.226Z,0.00
2022-12-17T01:55:11.263Z,0.00
2022-12-17T01:56:11.243Z,0.00
2022-12-17T01:57:11.218Z,0.00
2022-12-17T01:58:11.220Z,0.00
2022-12-17T01:59:11.205Z,0.00
2022-12-17T02:00:11.184Z,0.00
2022-12-17T02:01:11.251Z,0.00
2022-12-17T02:02:11.291Z,0.00
2022-12-17T02:03:11.230Z,0.00
2022-12-17T02:04:11.200Z,0.00
2022-12-17T02:05:11.176Z,0.00
2022-12-17T02:06:11.157Z,0.00
2022-12-17T02:07:11.216Z,0.00
2022-12-17T02:08:11.158Z,0.00
2022-12-17T02:09:11.150Z,0.00
2022-12-17T02:10:11.136Z,0.00
2022-12-17T02:11:11.113Z,0.00
2022-12-17T02:12:11.111Z,0.00
2022-12-17T02:13:11.103Z,0.00
2022-12-17T02:14:11.082Z,0.00
2022-12-17T02:15:11.093Z,0.00
2022-12-17T02:16:11.103Z,0.00
2022-12-17T02:17:11.061Z,0.00
2022-12-17T02:18:11.062Z,0.00
2022-12-17T02:19:11.058Z,0.00
2022-12-17T02:20:11.078Z,0.00
2022-12-17T02:21:11.033Z,0.00
2022-12-17T02:22:11.086Z,0.00
2022-12-17T02:23:11.010Z,0.00
2022-12-17T02:24:11.013Z,0.00
2022-12-17T02:25:10.991Z,0.00
2022-12-17T02:26:10.995Z,0.00
2022-12-17T02:27:10.975Z,0.00
2022-12-17T02:28:10.965Z,0.00
2022-12-17T02:29:10.976Z,0.00
2022-12-17T02:30:11.053Z,0.00
2022-12-17T02:31:10.980Z,0.00
2022-12-17T02:32:10.981Z,0.00
2022-12-17T02:33:10.931Z,0.00
2022-12-17T02:34:10.932Z,0.00
2022-12-17T02:35:10.935Z,0.00
2022-12-17T02:36:10.899Z,0.00
2022-12-17T02:37:10.908Z,0.00
2022-12-17T02:38:10.896Z,0.00
2022-12-17T02:39:10.896Z,0.00
2022-12-17T02:40:10.910Z,0.00
2022-12-17T02:41:10.882Z,0.00
2022-12-17T02:42:10.866Z,0.00
2022-12-17T02:43:10.866Z,0.00
2022-12-17T02:44:10.857Z,0.00
2022-12-17T02:45:10.855Z,0.00
2022-12-17T02:46:10.921Z,0.00
2022-12-17T02:47:10.845Z,0.00
2022-12-17T02:48:10.838Z,0.00
2022-12-17T02:49:10.816Z,0.00
2022-12-17T02:50:10.815Z,0.00
2022-12-17T02:51:10.824Z,0.00
2022-12-17T02:52:10.786Z,0.00
2022-12-17T02:53:10.787Z,0.00
2022-12-17T02:54:10.761Z,0.00
2022-12-17T02:55:10.765Z,0.00
2022-12-17T02:56:10.797Z,0.00
2022-12-17T02:57:10.840Z,0.00
2022-12-17T02:58:10.771Z,0.00
2022-12-17T02:59:10.749Z,0.00
2022-12-17T03:00:10.768Z,0.00
2022-12-17T03:01:10.784Z,0.00
2022-12-17T03:02:10.840Z,0.00
2022-12-17T03:03:10.823Z,0.00
2022-12-17T03:04:10.706Z,0.00
2022-12-17T03:05:45.417Z,0.00
2022-12-17T03:06:10.690Z,0.00
2022-12-17T03:07:10.731Z,0.00
2022-12-17T03:08:10.667Z,0.00
2022-12-17T03:09:10.654Z,0.00
2022-12-17T03:10:10.660Z,0.00
2022-12-17T03:11:10.680Z,0.00
2022-12-17T03:12:10.654Z,0.00
2022-12-17T03:13:10.674Z,0.00
2022-12-17T03:14:10.612Z,0.00
2022-12-17T03:15:10.646Z,0.00
2022-12-17T03:16:10.682Z,0.00
2022-12-17T03:17:10.766Z,0.00
2022-12-17T03:18:10.635Z,0.00
2022-12-17T03:19:10.594Z,0.00
2022-12-17T03:20:10.588Z,0.00
2022-12-17T03:21:10.573Z,0.00
2022-12-17T03:22:10.584Z,0.00
2022-12-17T03:23:11.475Z,0.00
2022-12-17T03:24:10.592Z,0.00
2022-12-17T03:25:10.549Z,0.00
2022-12-17T03:26:10.530Z,0.00
2022-12-17T03:27:10.548Z,0.00
2022-12-17T03:28:10.559Z,0.00
2022-12-17T03:29:10.549Z,0.00
2022-12-17T03:30:10.535Z,0.00
2022-12-17T03:31:10.612Z,0.00
2022-12-17T03:32:10.513Z,0.00
2022-12-17T03:33:10.503Z,0.00
2022-12-17T03:34:10.485Z,0.00
2022-12-17T03:35:10.496Z,0.00
2022-12-17T03:36:10.460Z,0.00
2022-12-17T03:37:10.474Z,0.00
2022-12-17T03:38:10.472Z,0.00
2022-12-17T03:39:10.444Z,0.00
2022-12-17T03:40:10.460Z,0.00
2022-12-17T03:41:10.429Z,0.00
2022-12-17T03:42:10.423Z,0.00
2022-12-17T03:43:10.416Z,0.00
2022-12-17T03:44:10.414Z,0.00
2022-12-17T03:45:10.495Z,0.00
2022-12-17T03:46:10.483Z,0.00
2022-12-17T03:47:10.383Z,0.00
2022-12-17T04:03:04.839Z,0.00
2022-12-17T04:04:04.763Z,0.00
2022-12-17T04:05:04.758Z,0.00
2022-12-17T04:06:04.753Z,0.00
2022-12-17T04:07:06.564Z,0.00
2022-12-17T04:08:05.932Z,0.00
2022-12-17T04:09:05.871Z,0.00
2022-12-17T04:10:05.850Z,0.00
2022-12-17T04:11:05.855Z,0.00
2022-12-17T04:12:05.910Z,0.00
2022-12-17T04:13:05.819Z,0.00
2022-12-17T04:14:05.837Z,0.00
2022-12-17T04:15:05.830Z,0.00
2022-12-17T04:16:05.895Z,0.00
2022-12-17T04:17:05.843Z,0.00
2022-12-17T04:18:05.793Z,0.00
2022-12-17T04:19:05.785Z,0.00
2022-12-17T04:20:05.786Z,0.00
2022-12-17T04:21:05.781Z,0.00
2022-12-17T04:22:05.790Z,0.00
2022-12-17T04:23:05.745Z,0.00
2022-12-17T04:24:05.745Z,0.00
2022-12-17T04:25:05.763Z,0.00
2022-12-17T04:26:05.721Z,0.00
2022-12-17T04:27:37.646Z,0.00
2022-12-17T04:28:05.747Z,0.00
2022-12-17T04:29:05.694Z,0.00
2022-12-17T04:30:05.708Z,0.00
2022-12-17T04:31:05.782Z,0.00
2022-12-17T04:32:05.672Z,0.00
2022-12-17T04:33:05.679Z,0.00
2022-12-17T04:34:05.728Z,0.00
2022-12-17T04:35:05.657Z,0.00
2022-12-17T04:36:05.687Z,0.00
2022-12-17T04:37:37.531Z,0.00
2022-12-17T04:38:05.649Z,0.00
2022-12-17T04:39:05.655Z,0.00
2022-12-17T04:40:05.617Z,0.00
2022-12-17T04:41:05.620Z,0.00
2022-12-17T04:42:05.637Z,0.00
2022-12-17T04:43:05.599Z,0.00
2022-12-17T04:44:05.591Z,0.00
2022-12-17T04:45:05.581Z,0.00
2022-12-17T04:46:37.527Z,0.00
2022-12-17T04:47:05.602Z,0.00
2022-12-17T04:48:05.565Z,0.00
2022-12-17T04:49:05.546Z,0.00
2022-12-17T04:50:05.542Z,0.00
2022-12-17T04:51:05.539Z,0.00
2022-12-17T04:52:05.545Z,0.00
2022-12-17T04:53:05.543Z,0.00
2022-12-17T04:54:05.502Z,0.00
2022-12-17T04:55:05.513Z,0.00
2022-12-17T04:56:05.497Z,0.00
2022-12-17T04:57:05.490Z,0.00
2022-12-17T04:58:06.092Z,0.00
2022-12-17T04:59:05.483Z,0.00
2022-12-17T05:00:05.461Z,0.00
2022-12-17T05:01:05.522Z,0.00
2022-12-17T05:02:05.554Z,0.00
2022-12-17T05:03:05.477Z,0.00
2022-12-17T05:04:06.101Z,0.00
2022-12-17T05:05:05.432Z,0.00
2022-12-17T05:06:05.433Z,0.00
2022-12-17T05:07:05.432Z,0.00
2022-12-17T05:08:05.411Z,0.00
2022-12-17T05:09:05.438Z,0.00
2022-12-17T05:10:05.395Z,0.00
2022-12-17T05:11:05.394Z,0.00
2022-12-17T05:12:05.471Z,0.00
2022-12-17T05:13:05.372Z,0.00
2022-12-17T05:14:05.391Z,0.00
2022-12-17T05:15:05.379Z,0.00
2022-12-17T05:16:05.436Z,0.00
2022-12-17T05:17:05.332Z,0.00
2022-12-17T05:18:05.345Z,0.00
2022-12-17T05:19:05.331Z,0.00
2022-12-17T05:20:06.092Z,0.00
2022-12-17T05:21:05.337Z,0.00
2022-12-17T05:22:05.322Z,0.00
2022-12-17T05:23:05.299Z,0.00
2022-12-17T05:24:05.297Z,0.00
2022-12-17T05:25:05.326Z,0.00
2022-12-17T05:26:05.607Z,0.00
2022-12-17T05:27:05.268Z,0.00
2022-12-17T05:28:05.268Z,0.00
2022-12-17T05:29:05.269Z,0.00
2022-12-17T05:30:05.273Z,0.00
2022-12-17T05:31:05.310Z,0.00
2022-12-17T05:32:05.289Z,0.00
2022-12-17T05:33:05.229Z,0.00
2022-12-17T05:34:05.238Z,0.00
2022-12-17T05:35:05.209Z,0.00
2022-12-17T05:36:05.223Z,0.00
2022-12-17T05:37:05.206Z,0.00
2022-12-17T05:38:05.220Z,0.00
2022-12-17T05:39:05.207Z,0.00
2022-12-17T05:40:09.311Z,0.00
2022-12-17T05:41:07.196Z,0.00
2022-12-17T05:42:05.199Z,0.00
2022-12-17T05:43:05.151Z,0.00
2022-12-17T05:44:05.174Z,0.00
2022-12-17T05:45:05.152Z,0.00
2022-12-17T05:46:05.163Z,0.00
2022-12-17T05:47:05.121Z,0.00
2022-12-17T05:48:05.135Z,0.00
2022-12-17T05:49:05.134Z,0.00
2022-12-17T05:50:05.106Z,0.00
2022-12-17T05:51:05.106Z,0.00
2022-12-17T05:52:05.098Z,0.00
2022-12-17T05:53:05.122Z,0.00
2022-12-17T05:54:05.102Z,0.00
2022-12-17T05:55:05.055Z,0.00
2022-12-17T05:56:05.082Z,0.00
2022-12-17T05:57:05.051Z,0.00
2022-12-17T05:58:05.063Z,0.00
2022-12-17T05:59:05.722Z,0.00
2022-12-17T06:00:05.032Z,0.00
2022-12-17T06:01:05.014Z,0.00
2022-12-17T06:02:05.014Z,0.00
2022-12-17T06:03:05.079Z,0.00
2022-12-17T06:04:05.057Z,0.00
2022-12-17T06:05:05.043Z,0.00
2022-12-17T06:06:04.980Z,0.00
2022-12-17T06:07:04.981Z,0.00
2022-12-17T06:08:04.961Z,0.00
2022-12-17T06:09:04.969Z,0.00
2022-12-17T06:10:04.940Z,0.00
2022-12-17T06:11:04.952Z,0.00
2022-12-17T06:12:04.948Z,0.00
2022-12-17T06:13:04.961Z,0.00
2022-12-17T06:14:04.954Z,0.00
2022-12-17T06:15:04.943Z,0.00
2022-12-17T06:16:04.962Z,0.00
2022-12-17T06:17:04.897Z,0.00
2022-12-17T06:18:04.983Z,0.00
2022-12-17T06:19:04.891Z,0.00
2022-12-17T06:20:04.867Z,0.00
2022-12-17T06:21:04.880Z,0.00
2022-12-17T06:22:04.875Z,0.00
2022-12-17T06:23:04.849Z,0.00
2022-12-17T06:24:04.856Z,0.00
2022-12-17T06:25:04.838Z,0.00
2022-12-17T06:26:04.831Z,0.00
2022-12-17T06:27:04.810Z,0.00
2022-12-17T06:28:04.821Z,0.00
2022-12-17T06:29:04.823Z,0.00
2022-12-17T06:30:05.150Z,0.00
2022-12-17T06:31:04.831Z,0.00
2022-12-17T06:32:04.812Z,0.00
2022-12-17T06:33:04.778Z,0.00
2022-12-17T06:34:04.754Z,0.00
2022-12-17T06:35:36.727Z,0.00
2022-12-17T06:36:04.754Z,0.00
2022-12-17T06:37:04.825Z,0.00
2022-12-17T06:38:04.733Z,0.00
2022-12-17T06:39:04.784Z,0.00
2022-12-17T06:40:04.712Z,0.00
2022-12-17T06:41:05.607Z,0.00
2022-12-17T06:42:05.703Z,0.00
2022-12-17T06:43:04.711Z,0.00
2022-12-17T06:44:04.705Z,0.00
2022-12-17T06:45:04.715Z,0.00
2022-12-17T06:46:04.664Z,0.00
2022-12-17T06:47:04.724Z,0.00
2022-12-17T06:48:04.654Z,0.00
2022-12-17T06:49:04.656Z,0.00
2022-12-17T06:50:04.648Z,0.00
2022-12-17T06:51:04.649Z,0.00
2022-12-17T06:52:04.635Z,0.00
2022-12-17T06:53:04.625Z,0.00
2022-12-17T06:54:04.645Z,0.00
2022-12-17T06:55:04.620Z,0.00
2022-12-17T06:56:04.586Z,0.00
2022-12-17T06:57:04.594Z,0.00
2022-12-17T06:58:04.577Z,0.00
2022-12-17T06:59:04.594Z,0.00
2022-12-17T07:00:04.595Z,0.00
2022-12-17T07:01:04.736Z,0.00
2022-12-17T07:02:04.709Z,0.00
2022-12-17T07:03:04.606Z,0.00
2022-12-17T07:04:04.548Z,0.00
2022-12-17T07:05:04.547Z,0.00
2022-12-17T07:06:04.517Z,0.00
2022-12-17T07:07:04.537Z,0.00
2022-12-17T07:08:04.525Z,0.00
2022-12-17T07:09:04.517Z,0.00
2022-12-17T07:10:09.185Z,0.00
2022-12-17T07:11:05.516Z,0.00
2022-12-17T07:12:04.516Z,0.00
2022-12-17T07:13:04.498Z,0.00
2022-12-17T07:14:04.482Z,0.00
2022-12-17T07:15:04.466Z,0.00
2022-12-17T07:16:04.511Z,0.00
2022-12-17T07:17:04.456Z,0.00
2022-12-17T07:18:04.435Z,0.00
2022-12-17T07:19:04.427Z,0.00
2022-12-17T07:20:04.442Z,5.62
2022-12-17T07:21:04.443Z,5.62
2022-12-17T07:22:04.402Z,5.62
2022-12-17T07:23:04.456Z,5.62
2022-12-17T07:24:04.388Z,5.62
2022-12-17T07:25:04.404Z,5.62
2022-12-17T07:26:04.374Z,5.62
2022-12-17T07:27:04.376Z,5.62
2022-12-17T07:28:04.356Z,5.62
2022-12-17T07:29:04.432Z,5.62
2022-12-17T07:30:04.356Z,5.62
2022-12-17T07:31:04.501Z,5.62
2022-12-17T07:32:04.376Z,11.25
2022-12-17T07:33:04.335Z,11.25
2022-12-17T07:34:04.332Z,11.25
2022-12-17T07:35:04.313Z,11.25
2022-12-17T07:36:04.307Z,11.25
2022-12-17T07:37:04.299Z,11.25
2022-12-17T07:38:04.287Z,11.25
2022-12-17T07:39:04.311Z,11.25
2022-12-17T07:40:04.260Z,11.25
2022-12-17T07:41:05.046Z,11.25
2022-12-17T07:42:04.282Z,11.25
2022-12-17T07:43:04.320Z,16.88
2022-12-17T07:44:04.234Z,16.88
2022-12-17T07:45:04.232Z,16.88
2022-12-17T07:46:04.271Z,16.88
2022-12-17T07:47:04.215Z,16.88
2022-12-17T07:48:04.222Z,16.88
2022-12-17T07:49:04.225Z,16.88
2022-12-17T07:50:04.206Z,22.50
2022-12-17T07:51:04.187Z,22.50
2022-12-17T07:52:04.164Z,22.50
2022-12-17T07:53:04.205Z,22.50
2022-12-17T07:54:04.156Z,22.50
2022-12-17T07:55:04.204Z,22.50
2022-12-17T07:56:04.151Z,22.50
2022-12-17T07:57:04.200Z,22.50
2022-12-17T07:58:04.123Z,28.12
2022-12-17T07:59:04.648Z,28.12
2022-12-17T08:00:04.143Z,28.12
2022-12-17T08:01:04.217Z,28.12
2022-12-17T08:02:05.318Z,28.12
2022-12-17T08:03:04.231Z,28.12
2022-12-17T08:04:04.118Z,33.75
2022-12-17T08:05:04.108Z,33.75
2022-12-17T08:06:04.059Z,33.75
2022-12-17T08:07:10.095Z,33.75
2022-12-17T08:08:06.065Z,33.75
2022-12-17T08:09:04.063Z,33.75
2022-12-17T08:10:04.049Z,33.75
2022-12-17T08:11:04.040Z,33.75
2022-12-17T08:12:04.039Z,39.38
2022-12-17T08:13:04.042Z,39.38
2022-12-17T08:14:04.009Z,39.38
2022-12-17T08:15:04.034Z,39.38
2022-12-17T08:16:04.000Z,39.38
2022-12-17T08:17:04.041Z,39.38
2022-12-17T08:18:04.003Z,45.00
2022-12-17T08:19:03.980Z,45.00
2022-12-17T08:20:04.007Z,45.00
2022-12-17T08:21:03.991Z,45.00
2022-12-17T08:22:03.961Z,45.00
2022-12-17T08:23:04.017Z,45.00
2022-12-17T08:24:03.963Z,45.00
2022-12-17T08:25:04.053Z,50.62
2022-12-17T08:26:03.950Z,50.62
2022-12-17T08:27:03.973Z,50.62
2022-12-17T08:28:07.384Z,50.62
2022-12-17T08:29:05.919Z,50.62
2022-12-17T08:30:03.905Z,50.62
2022-12-17T08:31:03.968Z,56.25
2022-12-17T08:32:03.884Z,56.25
2022-12-17T08:33:03.880Z,56.25
2022-12-17T08:34:35.784Z,56.25
2022-12-17T08:35:03.882Z,56.25
2022-12-17T08:36:03.843Z,56.25
2022-12-17T08:37:03.843Z,61.88
2022-12-17T08:38:03.863Z,61.88
2022-12-17T08:39:03.831Z,67.50
2022-12-17T08:40:03.861Z,67.50
2022-12-17T08:41:03.840Z,67.50
2022-12-17T08:42:04.669Z,73.12
2022-12-17T08:43:04.805Z,73.12
2022-12-17T08:44:03.860Z,73.12
2022-12-17T08:45:03.777Z,73.12
2022-12-17T08:46:03.867Z,73.12
2022-12-17T08:47:03.767Z,73.12
2022-12-17T08:48:04.374Z,78.75
2022-12-17T08:49:04.786Z,78.75
2022-12-17T08:50:04.684Z,78.75
2022-12-17T08:51:03.745Z,84.38
2022-12-17T08:52:03.734Z,84.38
2022-12-17T08:53:03.734Z,90.00
2022-12-17T08:54:03.747Z,90.00
2022-12-17T08:55:03.706Z,90.00
2022-12-17T08:56:03.706Z,90.00
2022-12-17T08:57:03.701Z,90.00
2022-12-17T08:58:03.691Z,95.62
2022-12-17T08:59:03.693Z,95.62
2022-12-17T09:00:03.663Z,95.62
2022-12-17T09:01:03.725Z,101.25
2022-12-17T09:02:03.809Z,101.25
2022-12-17T09:03:03.879Z,101.25
2022-12-17T09:04:03.670Z,106.88
2022-12-17T09:05:03.732Z,106.88
2022-12-17T09:06:03.647Z,106.88
2022-12-17T09:07:03.620Z,106.88
2022-12-17T09:08:03.640Z,106.88
2022-12-17T09:09:03.607Z,106.88
2022-12-17T09:10:03.630Z,106.88
2022-12-17T09:11:03.624Z,112.50
2022-12-17T09:12:03.569Z,112.50
2022-12-17T09:13:05.091Z,112.50
2022-12-17T09:14:04.649Z,112.50
2022-12-17T09:15:03.617Z,112.50
2022-12-17T09:16:04.575Z,112.50
2022-12-17T09:17:03.605Z,112.50
2022-12-17T09:18:03.567Z,112.50
2022-12-17T09:19:03.568Z,118.12
2022-12-17T09:20:03.521Z,118.12
2022-12-17T09:21:03.529Z,118.12
2022-12-17T09:22:03.578Z,118.12
2022-12-17T09:23:03.540Z,118.12
2022-12-17T09:24:03.513Z,118.12
2022-12-17T09:25:04.144Z,118.12
2022-12-17T09:26:03.624Z,112.50
2022-12-17T09:27:03.522Z,118.12
2022-12-17T09:28:04.198Z,118.12
2022-12-17T09:29:03.488Z,118.12
2022-12-17T09:30:03.453Z,123.75
2022-12-17T09:31:03.481Z,123.75
2022-12-17T09:32:03.429Z,123.75
2022-12-17T09:33:03.427Z,123.75
2022-12-17T09:34:03.409Z,129.38
2022-12-17T09:35:03.416Z,129.38
2022-12-17T09:36:03.412Z,129.38
2022-12-17T09:37:03.397Z,135.00
2022-12-17T09:38:03.440Z,135.00
2022-12-17T09:39:04.160Z,135.00
2022-12-17T09:40:03.392Z,135.00
2022-12-17T09:41:03.390Z,135.00
2022-12-17T09:42:03.367Z,135.00
2022-12-17T09:43:04.381Z,135.00
2022-12-17T09:44:03.368Z,135.00
2022-12-17T09:45:03.396Z,140.62
2022-12-17T09:46:03.372Z,140.62
2022-12-17T09:47:03.341Z,146.25
2022-12-17T09:48:03.351Z,146.25
2022-12-17T09:49:03.303Z,146.25
2022-12-17T09:50:04.345Z,146.25
2022-12-17T09:51:03.337Z,146.25
2022-12-17T09:52:03.323Z,146.25
2022-12-17T09:53:03.310Z,146.25
2022-12-17T09:54:03.269Z,146.25
2022-12-17T09:55:03.293Z,151.88
2022-12-17T09:56:03.250Z,151.88
2022-12-17T09:57:03.240Z,151.88
2022-12-17T09:58:03.709Z,151.88
2022-12-17T09:59:03.229Z,151.88
2022-12-17T10:00:03.218Z,157.50
2022-12-17T10:01:03.247Z,157.50
2022-12-17T10:02:03.402Z,157.50
2022-12-17T10:03:03.393Z,157.50
2022-12-17T10:04:03.188Z,157.50
2022-12-17T10:05:03.208Z,157.50
2022-12-17T10:06:03.198Z,157.50
2022-12-17T10:07:03.182Z,157.50
2022-12-17T10:08:03.157Z,163.12
2022-12-17T10:09:03.164Z,168.75
2022-12-17T10:10:03.161Z,168.75
2022-12-17T10:11:03.165Z,174.38
2022-12-17T10:12:03.182Z,174.38
2022-12-17T10:13:03.138Z,180.00
2022-12-17T10:14:03.138Z,174.38
2022-12-17T10:15:03.120Z,180.00
2022-12-17T10:16:03.115Z,180.00
2022-12-17T10:17:05.908Z,180.00
2022-12-17T10:18:05.108Z,185.62
2022-12-17T10:19:03.162Z,185.62
2022-12-17T10:20:03.087Z,185.62
2022-12-17T10:21:03.068Z,191.25
2022-12-17T10:22:03.663Z,191.25
2022-12-17T10:23:03.078Z,196.88
2022-12-17T10:24:03.069Z,196.88
2022-12-17T10:25:03.059Z,196.88
2022-12-17T10:26:03.076Z,196.88
2022-12-17T10:27:03.058Z,191.25
2022-12-17T10:28:03.032Z,191.25
2022-12-17T10:29:03.020Z,191.25
2022-12-17T10:30:03.024Z,191.25
2022-12-17T10:31:03.040Z,191.25
2022-12-17T10:32:03.020Z,191.25
2022-12-17T10:33:02.992Z,185.62
2022-12-17T10:34:02.985Z,185.62
2022-12-17T10:35:05.553Z,185.62
2022-12-17T10:36:03.968Z,191.25
2022-12-17T10:37:02.964Z,191.25
2022-12-17T10:38:02.970Z,191.25
2022-12-17T10:39:02.994Z,191.25
2022-12-17T10:40:02.952Z,196.88
2022-12-17T10:41:02.948Z,202.50
2022-12-17T10:42:02.915Z,202.50
2022-12-17T10:43:02.929Z,208.12
2022-12-17T10:44:02.899Z,208.12
2022-12-17T10:45:02.921Z,208.12
2022-12-17T10:46:03.724Z,213.75
2022-12-17T10:47:02.918Z,219.38
2022-12-17T10:48:02.899Z,219.38
2022-12-17T10:49:06.909Z,225.00
2022-12-17T10:50:04.865Z,225.00
2022-12-17T10:51:02.896Z,230.62
2022-12-17T10:52:02.851Z,230.62
2022-12-17T10:53:02.839Z,236.25
2022-12-17T10:54:02.831Z,236.25
2022-12-17T10:55:02.820Z,236.25
2022-12-17T10:56:02.856Z,230.62
2022-12-17T10:57:02.812Z,230.62
2022-12-17T10:58:02.826Z,230.62
2022-12-17T10:59:02.796Z,230.62
2022-12-17T11:00:02.801Z,230.62
2022-12-17T11:01:02.779Z,230.62
2022-12-17T11:02:02.925Z,230.62
2022-12-17T11:03:02.904Z,230.62
2022-12-17T11:04:02.784Z,230.62
2022-12-17T11:05:02.778Z,230.62
2022-12-17T11:06:02.756Z,230.62
2022-12-17T11:07:02.764Z,236.25
2022-12-17T11:08:02.723Z,236.25
2022-12-17T11:09:02.722Z,236.25
2022-12-17T11:10:09.275Z,236.25
2022-12-17T11:11:04.744Z,236.25
2022-12-17T11:12:07.174Z,236.25
2022-12-17T11:13:03.679Z,236.25
2022-12-17T11:14:02.689Z,236.25
2022-12-17T11:15:02.666Z,241.88
2022-12-17T11:16:02.711Z,253.12
2022-12-17T11:17:02.707Z,270.00
2022-12-17T11:18:05.545Z,281.25
2022-12-17T11:19:04.665Z,292.50
2022-12-17T11:20:02.640Z,292.50
2022-12-17T11:21:02.612Z,292.50
2022-12-17T11:22:02.686Z,286.88
2022-12-17T11:23:02.601Z,292.50
2022-12-17T11:24:02.601Z,292.50
2022-12-17T11:25:02.615Z,298.12
2022-12-17T11:26:02.600Z,303.75
2022-12-17T11:27:02.582Z,303.75
2022-12-17T11:28:02.569Z,303.75
2022-12-17T11:29:02.554Z,292.50
2022-12-17T11:30:02.557Z,286.88
2022-12-17T11:31:02.728Z,281.25
2022-12-17T11:32:02.567Z,281.25
2022-12-17T11:33:02.535Z,275.62
2022-12-17T11:34:02.740Z,281.25
2022-12-17T11:35:02.526Z,281.25
2022-12-17T11:36:02.523Z,281.25
2022-12-17T11:37:02.542Z,281.25
2022-12-17T11:38:02.539Z,281.25
2022-12-17T11:39:02.512Z,281.25
2022-12-17T11:40:02.489Z,281.25
2022-12-17T11:41:02.473Z,281.25
2022-12-17T11:42:06.627Z,281.25
2022-12-17T11:43:04.539Z,275.62
2022-12-17T11:44:02.447Z,275.62
2022-12-17T11:45:02.449Z,281.25
2022-12-17T11:46:02.490Z,281.25
2022-12-17T11:47:02.478Z,275.62
2022-12-17T11:48:02.423Z,264.38
2022-12-17T11:49:02.491Z,264.38
2022-12-17T11:50:02.431Z,258.75
2022-12-17T11:51:02.409Z,258.75
2022-12-17T11:52:02.385Z,264.38
2022-12-17T11:53:02.398Z,264.38
2022-12-17T11:54:02.407Z,270.00
2022-12-17T11:55:02.398Z,275.62
2022-12-17T11:56:02.392Z,281.25
2022-12-17T11:57:02.374Z,286.88
2022-12-17T11:58:02.366Z,286.88
2022-12-17T11:59:02.370Z,292.50
2022-12-17T12:00:04.347Z,298.12
2022-12-17T12:01:03.314Z,292.50
2022-12-17T12:02:02.341Z,286.88
2022-12-17T12:03:02.477Z,281.25
2022-12-17T12:04:02.408Z,281.25
2022-12-17T12:05:02.304Z,286.88
2022-12-17T12:06:02.289Z,292.50
2022-12-17T12:07:02.330Z,298.12
2022-12-17T12:08:02.295Z,303.75
2022-12-17T12:09:02.279Z,309.38
2022-12-17T12:10:02.266Z,309.38
2022-12-17T12:11:02.243Z,309.38
2022-12-17T12:12:03.080Z,303.75
2022-12-17T12:13:02.230Z,303.75
2022-12-17T12:14:02.315Z,303.75
2022-12-17T12:15:02.216Z,298.12
2022-12-17T12:16:02.270Z,292.50
2022-12-17T12:17:02.230Z,286.88
2022-12-17T12:18:02.215Z,286.88
2022-12-17T12:19:02.233Z,286.88
2022-12-17T12:20:02.227Z,286.88
2022-12-17T12:21:02.185Z,286.88
2022-12-17T12:22:02.170Z,281.25
2022-12-17T12:23:02.191Z,275.62
2022-12-17T12:24:02.163Z,270.00
2022-12-17T12:25:02.183Z,264.38
2022-12-17T12:26:02.115Z,264.38
2022-12-17T12:27:03.127Z,264.38
2022-12-17T12:28:02.127Z,264.38
2022-12-17T12:29:02.121Z,258.75
2022-12-17T12:30:02.136Z,253.12
2022-12-17T12:31:02.197Z,241.88
2022-12-17T12:32:02.204Z,236.25
2022-12-17T12:33:08.320Z,230.62
2022-12-17T12:34:04.099Z,236.25
2022-12-17T12:35:02.108Z,236.25
2022-12-17T12:36:33.971Z,236.25
2022-12-17T12:37:02.042Z,230.62
2022-12-17T12:38:02.099Z,230.62
2022-12-17T12:39:02.064Z,225.00
2022-12-17T12:40:02.076Z,230.62
2022-12-17T12:41:02.061Z,225.00
2022-12-17T12:42:02.026Z,225.00
2022-12-17T12:43:02.003Z,213.75
2022-12-17T12:44:01.993Z,208.12
2022-12-17T12:45:02.044Z,208.12
2022-12-17T12:46:02.102Z,202.50
2022-12-17T12:47:01.967Z,202.50
2022-12-17T12:48:02.015Z,202.50
2022-12-17T12:49:01.976Z,202.50
2022-12-17T12:50:02.062Z,202.50
2022-12-17T12:51:02.015Z,208.12
2022-12-17T12:52:01.934Z,208.12
2022-12-17T12:53:01.939Z,202.50
2022-12-17T12:54:01.931Z,185.62
2022-12-17T12:55:01.933Z,174.38
2022-12-17T12:56:01.927Z,168.75
2022-12-17T12:57:01.909Z,168.75
2022-12-17T12:58:01.887Z,163.12
2022-12-17T12:59:01.880Z,163.12
2022-12-17T13:00:01.890Z,157.50
2022-12-17T13:01:01.929Z,163.12
2022-12-17T13:02:02.058Z,168.75
2022-12-17T13:03:01.990Z,174.38
2022-12-17T13:04:01.853Z,174.38
2022-12-17T13:05:01.856Z,174.38
2022-12-17T13:06:01.842Z,168.75
2022-12-17T13:07:02.827Z,168.75
2022-12-17T13:08:01.831Z,168.75
2022-12-17T13:09:01.882Z,168.75
2022-12-17T13:10:01.828Z,163.12
2022-12-17T13:11:01.843Z,151.88
2022-12-17T13:12:01.806Z,151.88
2022-12-17T13:13:01.820Z,151.88